createdAt,value
2019-03-08T00:00:59.177Z,70.64
2019-03-08T00:02:08.915Z,70.55
2019-03-08T00:03:18.923Z,70.45
2019-03-08T00:04:28.908Z,71.31
2019-03-08T00:05:38.626Z,71.03
2019-03-08T00:06:48.342Z,71.03
2019-03-08T00:07:58.065Z,71.22
2019-03-08T00:09:08.981Z,71.03
2019-03-08T00:10:18.886Z,71.22
2019-03-08T00:11:28.626Z,71.03
2019-03-08T00:12:38.350Z,71.31
2019-03-08T00:13:48.088Z,71.22
2019-03-08T00:14:57.827Z,71.12
2019-03-08T00:16:07.723Z,71.31
2019-03-08T00:17:16.954Z,71.03
2019-03-08T00:18:26.940Z,71.22
2019-03-08T00:19:36.680Z,71.12
2019-03-08T00:20:46.409Z,71.12
2019-03-08T00:21:56.386Z,70.93
2019-03-08T00:23:06.363Z,71.41
2019-03-08T00:24:15.606Z,70.93
2019-03-08T00:25:25.083Z,71.41
2019-03-08T00:26:35.082Z,71.41
2019-03-08T00:27:44.568Z,71.89
2019-03-08T00:28:55.185Z,71.22
2019-03-08T00:30:04.992Z,71.41
2019-03-08T00:31:14.464Z,71.7
2019-03-08T00:32:24.476Z,71.12
2019-03-08T00:33:34.682Z,71.89
2019-03-08T00:34:45.141Z,71.8
2019-03-08T00:35:55.537Z,71.7
2019-03-08T00:37:05.647Z,71.89
2019-03-08T00:38:16.969Z,71.8
2019-03-08T00:39:26.988Z,71.89
2019-03-08T00:40:37.192Z,71.7
2019-03-08T00:41:46.854Z,71.8
2019-03-08T00:42:56.465Z,71.8
2019-03-08T00:44:06.444Z,71.89
2019-03-08T00:45:16.180Z,71.98
2019-03-08T00:46:25.685Z,72.08
2019-03-08T00:47:35.172Z,72.37
2019-03-08T00:48:46.504Z,72.56
2019-03-08T00:49:56.538Z,72.47
2019-03-08T00:51:06.521Z,72.47
2019-03-08T00:52:16.252Z,72.75
2019-03-08T00:53:26.235Z,72.37
2019-03-08T00:54:35.725Z,72.18
2019-03-08T00:55:45.453Z,72.28
2019-03-08T00:56:55.192Z,72.33
2019-03-08T00:58:04.421Z,72.47
2019-03-08T00:59:14.408Z,72.24
2019-03-08T01:00:24.141Z,72.56
2019-03-08T01:01:33.863Z,72.28
2019-03-08T01:02:43.590Z,72.56
2019-03-08T01:03:53.567Z,72.28
2019-03-08T01:05:03.301Z,72.14
2019-03-08T01:06:13.287Z,72.95
2019-03-08T01:07:22.284Z,72.85
2019-03-08T01:08:32.258Z,72.72
2019-03-08T01:09:42.230Z,72.24
2019-03-08T01:10:51.953Z,72.28
2019-03-08T01:12:01.431Z,72.47
2019-03-08T01:13:11.419Z,72.33
2019-03-08T01:14:21.405Z,73.04
2019-03-08T01:15:31.163Z,72.33
2019-03-08T01:16:40.891Z,72.33
2019-03-08T01:17:50.894Z,72.81
2019-03-08T01:19:00.639Z,72.53
2019-03-08T01:20:10.662Z,72.81
2019-03-08T01:21:20.146Z,72.43
2019-03-08T01:22:29.870Z,72.63
2019-03-08T01:23:39.631Z,72.53
2019-03-08T01:24:49.619Z,72.91
2019-03-08T01:25:58.596Z,72.43
2019-03-08T01:27:08.337Z,72.72
2019-03-08T01:28:18.378Z,72.53
2019-03-08T01:29:27.877Z,72.43
2019-03-08T01:30:37.380Z,73.1
2019-03-08T01:31:46.875Z,72.63
2019-03-08T01:32:59.033Z,72.63
2019-03-08T01:34:09.210Z,73
2019-03-08T01:35:19.831Z,72.91
2019-03-08T01:36:30.248Z,73.3
2019-03-08T01:37:40.786Z,73.3
2019-03-08T01:38:51.362Z,73.3
2019-03-08T01:40:01.031Z,73
2019-03-08T01:41:10.840Z,73.3
2019-03-08T01:42:20.832Z,73.3
2019-03-08T01:43:30.795Z,73.97
2019-03-08T01:44:40.025Z,73.77
2019-03-08T01:45:49.790Z,73.77
2019-03-08T01:46:59.770Z,73.58
2019-03-08T01:48:09.249Z,73.68
2019-03-08T01:49:18.988Z,73.58
2019-03-08T01:50:28.492Z,73.68
2019-03-08T01:51:37.716Z,73.77
2019-03-08T01:52:47.692Z,73.68
2019-03-08T01:53:57.434Z,73.87
2019-03-08T01:55:07.420Z,73.3
2019-03-08T01:56:16.908Z,73.87
2019-03-08T01:57:26.911Z,73.77
2019-03-08T01:58:36.642Z,73.97
2019-03-08T01:59:46.127Z,73.87
2019-03-08T02:00:55.865Z,73.3
2019-03-08T02:02:05.338Z,73
2019-03-08T02:03:17.205Z,73.2
2019-03-08T02:04:27.300Z,73.68
2019-03-08T02:05:37.034Z,73.68
2019-03-08T02:06:46.770Z,73.87
2019-03-08T02:07:56.748Z,73.77
2019-03-08T02:09:06.713Z,73.77
2019-03-08T02:10:16.441Z,73.87
2019-03-08T02:11:26.417Z,73.58
2019-03-08T02:12:36.144Z,73.87
2019-03-08T02:13:47.443Z,73.87
2019-03-08T02:14:57.172Z,73.77
2019-03-08T02:16:06.906Z,73.97
2019-03-08T02:17:16.669Z,74.06
2019-03-08T02:18:26.416Z,73.68
2019-03-08T02:19:36.387Z,74.06
2019-03-08T02:20:46.133Z,73.87
2019-03-08T02:21:57.585Z,73.77
2019-03-08T02:23:07.322Z,74.35
2019-03-08T02:24:17.061Z,74.26
2019-03-08T02:25:26.786Z,74.35
2019-03-08T02:26:36.285Z,74.35
2019-03-08T02:27:45.788Z,74.26
2019-03-08T02:28:55.280Z,74.16
2019-03-08T02:30:05.408Z,73.97
2019-03-08T02:31:15.483Z,74.83
2019-03-08T02:32:25.831Z,74.73
2019-03-08T02:33:35.599Z,74.16
2019-03-08T02:34:45.236Z,74.44
2019-03-08T02:35:55.770Z,74.83
2019-03-08T02:37:06.075Z,74.83
2019-03-08T02:38:16.678Z,74.73
2019-03-08T02:39:26.712Z,74.73
2019-03-08T02:40:36.551Z,74.93
2019-03-08T02:41:46.055Z,74.64
2019-03-08T02:42:55.782Z,74.54
2019-03-08T02:44:05.780Z,74.64
2019-03-08T02:45:14.999Z,74.64
2019-03-08T02:46:24.968Z,74.64
2019-03-08T02:47:34.939Z,74.64
2019-03-08T02:48:44.681Z,74.83
2019-03-08T02:49:54.413Z,74.93
2019-03-08T02:51:04.154Z,74.64
2019-03-08T02:52:13.386Z,74.83
2019-03-08T02:53:23.365Z,74.73
2019-03-08T02:54:34.425Z,74.73
2019-03-08T02:55:44.277Z,74.93
2019-03-08T02:56:54.013Z,74.93
2019-03-08T02:58:03.760Z,74.54
2019-03-08T02:59:13.490Z,75.4
2019-03-08T03:00:23.019Z,75.4
2019-03-08T03:01:33.000Z,75.21
2019-03-08T03:02:43.010Z,74.73
2019-03-08T03:03:52.983Z,74.93
2019-03-08T03:05:02.549Z,75.4
2019-03-08T03:06:12.554Z,75.02
2019-03-08T03:07:22.033Z,75.21
2019-03-08T03:08:31.749Z,74.64
2019-03-08T03:09:41.486Z,75.5
2019-03-08T03:10:50.959Z,75.21
2019-03-08T03:12:00.697Z,74.83
2019-03-08T03:13:10.681Z,75.02
2019-03-08T03:14:20.649Z,74.64
2019-03-08T03:15:30.373Z,74.73
2019-03-08T03:16:39.868Z,75.12
2019-03-08T03:17:49.334Z,75.21
2019-03-08T03:18:59.314Z,75.31
2019-03-08T03:20:09.057Z,75.31
2019-03-08T03:21:18.812Z,75.31
2019-03-08T03:22:28.275Z,75.31
2019-03-08T03:23:37.746Z,75.21
2019-03-08T03:24:47.468Z,75.31
2019-03-08T03:25:57.206Z,75.31
2019-03-08T03:27:07.174Z,75.12
2019-03-08T03:28:16.915Z,75.5
2019-03-08T03:29:26.902Z,75.31
2019-03-08T03:30:36.960Z,75.4
2019-03-08T03:31:46.904Z,75.31
2019-03-08T03:32:57.282Z,75.5
2019-03-08T03:34:07.560Z,75.5
2019-03-08T03:35:17.706Z,75.4
2019-03-08T03:36:28.162Z,75.21
2019-03-08T03:37:38.585Z,75.4
2019-03-08T03:38:48.427Z,75.7
2019-03-08T03:39:58.158Z,75.7
2019-03-08T03:41:07.962Z,75.31
2019-03-08T03:42:17.937Z,75.12
2019-03-08T03:43:27.654Z,75.89
2019-03-08T03:44:37.376Z,75.6
2019-03-08T03:45:47.119Z,75.31
2019-03-08T03:46:57.108Z,75.6
2019-03-08T03:48:06.873Z,75.6
2019-03-08T03:49:16.351Z,75.4
2019-03-08T03:50:25.578Z,75.5
2019-03-08T03:51:35.297Z,75.5
2019-03-08T03:52:45.054Z,75.6
2019-03-08T03:53:55.054Z,75.31
2019-03-08T03:55:05.073Z,75.31
2019-03-08T03:56:15.051Z,75.46
2019-03-08T03:57:24.534Z,75.7
2019-03-08T03:58:34.256Z,75.6
2019-03-08T03:59:43.741Z,75.4
2019-03-08T04:00:53.218Z,75.31
2019-03-08T04:02:03.236Z,75.7
2019-03-08T04:03:12.963Z,75.98
2019-03-08T04:04:22.694Z,75.89
2019-03-08T04:05:32.693Z,75.7
2019-03-08T04:06:42.662Z,75.27
2019-03-08T04:07:52.414Z,75.6
2019-03-08T04:09:02.156Z,75.89
2019-03-08T04:10:11.618Z,75.7
2019-03-08T04:11:21.391Z,75.98
2019-03-08T04:12:31.154Z,75.6
2019-03-08T04:13:41.137Z,75.7
2019-03-08T04:14:50.865Z,75.6
2019-03-08T04:16:00.347Z,75.89
2019-03-08T04:17:10.317Z,75.89
2019-03-08T04:18:19.799Z,75.98
2019-03-08T04:19:29.288Z,76.23
2019-03-08T04:20:38.787Z,76.07
2019-03-08T04:21:48.550Z,76.07
2019-03-08T04:22:58.277Z,76.07
2019-03-08T04:24:07.766Z,76.07
2019-03-08T04:25:17.255Z,75.98
2019-03-08T04:26:26.987Z,76.07
2019-03-08T04:27:36.483Z,75.98
2019-03-08T04:28:47.089Z,75.98
2019-03-08T04:29:59.049Z,75.98
2019-03-08T04:31:08.532Z,76.07
2019-03-08T04:32:18.294Z,75.98
2019-03-08T04:33:28.590Z,76.37
2019-03-08T04:34:38.772Z,76.46
2019-03-08T04:35:48.887Z,76.37
2019-03-08T04:36:58.803Z,76.17
2019-03-08T04:38:09.136Z,75.98
2019-03-08T04:39:19.484Z,75.98
2019-03-08T04:40:29.297Z,75.98
2019-03-08T04:41:39.647Z,76.07
2019-03-08T04:42:49.204Z,76.07
2019-03-08T04:43:58.753Z,75.89
2019-03-08T04:45:08.495Z,75.79
2019-03-08T04:46:18.488Z,75.98
2019-03-08T04:47:28.214Z,76.17
2019-03-08T04:48:37.947Z,76.46
2019-03-08T04:49:47.168Z,76.37
2019-03-08T04:50:56.664Z,76.07
2019-03-08T04:52:06.383Z,76.04
2019-03-08T04:53:16.119Z,76.27
2019-03-08T04:54:26.096Z,76.17
2019-03-08T04:55:35.575Z,76.07
2019-03-08T04:56:45.314Z,76.07
2019-03-08T04:57:54.807Z,75.85
2019-03-08T04:59:04.311Z,75.75
2019-03-08T05:00:14.048Z,76.27
2019-03-08T05:01:23.536Z,75.85
2019-03-08T05:02:33.267Z,75.85
2019-03-08T05:03:43.256Z,75.95
2019-03-08T05:04:52.979Z,76.23
2019-03-08T05:06:03.297Z,75.65
2019-03-08T05:07:13.046Z,75.95
2019-03-08T05:08:22.296Z,76.04
2019-03-08T05:09:32.032Z,76.04
2019-03-08T05:10:41.794Z,75.95
2019-03-08T05:11:51.796Z,75.75
2019-03-08T05:13:01.773Z,75.95
2019-03-08T05:14:11.495Z,75.95
2019-03-08T05:15:21.225Z,75.75
2019-03-08T05:16:31.212Z,75.56
2019-03-08T05:17:41.225Z,75.75
2019-03-08T05:18:50.983Z,75.56
2019-03-08T05:20:00.454Z,75.65
2019-03-08T05:21:10.183Z,75.95
2019-03-08T05:22:19.911Z,75.75
2019-03-08T05:23:30.622Z,75.95
2019-03-08T05:27:02.178Z,76.04
2019-03-08T05:28:12.158Z,75.75
2019-03-08T05:29:24.211Z,75.75
2019-03-08T05:30:34.078Z,76.04
2019-03-08T05:31:44.064Z,76.04
2019-03-08T05:32:53.531Z,76.04
2019-03-08T05:34:03.286Z,76.37
2019-03-08T05:35:13.329Z,76.46
2019-03-08T05:36:23.345Z,75.4
2019-03-08T05:37:33.804Z,74.64
2019-03-08T05:38:43.994Z,74.44
2019-03-08T05:39:55.176Z,73.77
2019-03-08T05:41:05.838Z,73.83
2019-03-08T05:42:15.915Z,73.77
2019-03-08T05:43:26.243Z,73.83
2019-03-08T05:44:35.876Z,73.74
2019-03-08T05:45:45.089Z,73.83
2019-03-08T05:46:55.089Z,73.74
2019-03-08T05:48:04.836Z,73.93
2019-03-08T05:49:14.325Z,74.12
2019-03-08T05:50:24.046Z,74.35
2019-03-08T05:51:33.527Z,74.83
2019-03-08T05:52:43.317Z,74.44
2019-03-08T05:53:53.071Z,74.54
2019-03-08T05:55:03.037Z,75.4
2019-03-08T05:56:13.050Z,75.02
2019-03-08T05:57:22.539Z,75.4
2019-03-08T05:58:32.054Z,75.31
2019-03-08T05:59:42.054Z,75.4
2019-03-08T06:00:52.893Z,75.4
2019-03-08T06:02:02.627Z,75.31
2019-03-08T06:03:12.353Z,75.6
2019-03-08T06:04:22.104Z,75.85
2019-03-08T06:05:31.585Z,76.27
2019-03-08T06:06:41.321Z,75.89
2019-03-08T06:07:51.079Z,76.14
2019-03-08T06:09:00.852Z,76.46
2019-03-08T06:10:10.350Z,76.27
2019-03-08T06:11:20.324Z,76.37
2019-03-08T06:12:30.296Z,76.27
2019-03-08T06:13:40.018Z,76.46
2019-03-08T06:14:49.996Z,76.37
2019-03-08T06:15:59.219Z,76.84
2019-03-08T06:17:09.223Z,77.33
2019-03-08T06:18:18.967Z,77.33
2019-03-08T06:19:28.721Z,77.42
2019-03-08T06:20:38.233Z,77.8
2019-03-08T06:21:47.727Z,78.09
2019-03-08T06:22:57.452Z,78.86
2019-03-08T06:24:07.702Z,78.77
2019-03-08T06:25:17.219Z,78.38
2019-03-08T06:26:26.967Z,77.61
2019-03-08T06:27:36.439Z,77.9
2019-03-08T06:28:46.200Z,78.09
2019-03-08T06:29:55.424Z,78.19
2019-03-08T06:31:05.365Z,77.71
2019-03-08T06:32:15.349Z,77.13
2019-03-08T06:33:25.339Z,77.23
2019-03-08T06:34:35.377Z,77.8
2019-03-08T06:35:45.342Z,77.23
2019-03-08T06:36:55.092Z,77.13
2019-03-08T06:38:04.823Z,76.94
2019-03-08T06:39:14.322Z,76.46
2019-03-08T06:40:24.046Z,76.81
2019-03-08T06:41:33.636Z,76.62
2019-03-08T06:42:43.396Z,76.37
2019-03-08T06:43:52.896Z,76.17
2019-03-08T06:45:02.366Z,76.37
2019-03-08T06:46:12.095Z,76.37
2019-03-08T06:47:21.567Z,76.07
2019-03-08T06:48:31.298Z,76.27
2019-03-08T06:49:40.786Z,76.37
2019-03-08T06:50:50.796Z,76.65
2019-03-08T06:52:01.040Z,76.9
2019-03-08T06:53:11.294Z,77.33
2019-03-08T06:54:21.874Z,77.51
2019-03-08T06:55:31.999Z,77.42
2019-03-08T06:56:41.862Z,77.71
2019-03-08T06:57:51.838Z,77.23
2019-03-08T06:59:02.440Z,77.8
2019-03-08T07:00:12.459Z,77.42
2019-03-08T07:01:22.446Z,77.51
2019-03-08T07:02:32.929Z,77.51
2019-03-08T07:03:42.747Z,77.51
2019-03-08T07:04:52.475Z,77.33
2019-03-08T07:06:01.965Z,77.8
2019-03-08T07:07:11.930Z,77.33
2019-03-08T07:08:21.416Z,77.33
2019-03-08T07:09:31.158Z,76.65
2019-03-08T07:10:41.145Z,76.84
2019-03-08T07:11:51.136Z,76.56
2019-03-08T07:13:05.890Z,76.37
2019-03-08T07:14:15.631Z,76.46
2019-03-08T07:15:25.116Z,76.46
2019-03-08T07:16:34.332Z,76.46
2019-03-08T07:17:43.823Z,76.37
2019-03-08T07:18:54.296Z,76.27
2019-03-08T07:20:04.287Z,76.37
2019-03-08T07:21:14.025Z,76.17
2019-03-08T07:22:23.519Z,76.07
2019-03-08T07:23:33.026Z,75.5
2019-03-08T07:24:43.000Z,75.79
2019-03-08T07:25:56.576Z,76.07
2019-03-08T07:27:06.556Z,75.79
2019-03-08T07:28:16.538Z,75.6
2019-03-08T07:29:26.019Z,75.7
2019-03-08T07:30:35.510Z,75.6
2019-03-08T07:31:45.490Z,75.6
2019-03-08T07:32:55.237Z,75.6
2019-03-08T07:34:04.457Z,75.31
2019-03-08T07:35:16.317Z,75.31
2019-03-08T07:36:27.307Z,75.4
2019-03-08T07:37:36.534Z,75.02
2019-03-08T07:38:47.920Z,75.4
2019-03-08T07:39:57.653Z,75.4
2019-03-08T07:41:07.395Z,75.4
2019-03-08T07:42:17.129Z,75.5
2019-03-08T07:43:26.635Z,75.5
2019-03-08T07:44:35.861Z,75.21
2019-03-08T07:45:46.796Z,75.4
2019-03-08T07:46:56.813Z,75.5
2019-03-08T07:48:06.559Z,75.4
2019-03-08T07:49:16.510Z,75.31
2019-03-08T07:50:27.774Z,75.31
2019-03-08T07:51:38.440Z,75.02
2019-03-08T07:52:49.142Z,75.4
2019-03-08T07:53:59.283Z,75.31
2019-03-08T07:55:09.241Z,75.21
2019-03-08T07:56:19.343Z,74.93
2019-03-08T07:57:29.473Z,75.4
2019-03-08T07:58:39.445Z,74.73
2019-03-08T07:59:56.047Z,74.83
2019-03-08T08:01:05.327Z,75.21
2019-03-08T08:02:15.316Z,75.4
2019-03-08T08:03:25.296Z,75.4
2019-03-08T08:04:34.809Z,75.02
2019-03-08T08:05:44.302Z,74.73
2019-03-08T08:07:03.048Z,75.5
2019-03-08T08:08:12.855Z,75.21
2019-03-08T08:09:22.854Z,75.12
2019-03-08T08:10:32.354Z,74.73
2019-03-08T08:11:42.380Z,74.93
2019-03-08T08:12:52.119Z,75.31
2019-03-08T08:14:01.903Z,74.64
2019-03-08T08:15:11.378Z,74.93
2019-03-08T08:16:21.354Z,74.93
2019-03-08T08:17:31.358Z,75.4
2019-03-08T08:18:41.363Z,75.21
2019-03-08T08:19:51.150Z,75.7
2019-03-08T08:21:01.287Z,75.31
2019-03-08T08:22:12.259Z,75.6
2019-03-08T08:23:22.114Z,75.6
2019-03-08T08:24:42.739Z,75.6
2019-03-08T08:25:52.956Z,75.21
2019-03-08T08:27:03.222Z,76.07
2019-03-08T08:28:14.652Z,75.4
2019-03-08T08:29:24.706Z,75.89
2019-03-08T08:30:42.611Z,75.6
2019-03-08T08:31:52.091Z,76.07
2019-03-08T08:33:02.078Z,75.4
2019-03-08T08:34:11.817Z,75.89
2019-03-08T08:35:21.831Z,75.7
2019-03-08T08:36:31.824Z,75.6
2019-03-08T08:37:41.566Z,75.6
2019-03-08T08:38:51.302Z,75.31
2019-03-08T08:40:01.277Z,75.4
2019-03-08T08:41:11.002Z,74.77
2019-03-08T08:42:20.723Z,74.68
2019-03-08T08:43:30.215Z,74.64
2019-03-08T08:44:39.726Z,74.68
2019-03-08T08:45:49.710Z,74.64
2019-03-08T08:46:59.448Z,74.64
2019-03-08T08:48:09.213Z,74.87
2019-03-08T08:49:20.389Z,74.93
2019-03-08T08:50:30.154Z,74.77
2019-03-08T08:51:40.756Z,74.96
2019-03-08T08:52:49.978Z,74.87
2019-03-08T08:53:59.730Z,74.68
2019-03-08T08:55:09.217Z,74.68
2019-03-08T08:56:18.947Z,74.39
2019-03-08T08:57:28.945Z,74.77
2019-03-08T08:58:38.666Z,74.96
2019-03-08T08:59:48.658Z,74.87
2019-03-08T09:00:59.737Z,74.58
2019-03-08T09:02:09.721Z,74.68
2019-03-08T09:03:19.714Z,74.19
2019-03-08T09:04:29.208Z,73.14
2019-03-08T09:05:39.187Z,72.89
2019-03-08T09:06:48.909Z,73.18
2019-03-08T09:07:58.914Z,73.27
2019-03-08T09:09:08.392Z,73.81
2019-03-08T09:10:18.127Z,74.01
2019-03-08T09:11:28.116Z,73.81
2019-03-08T09:12:48.850Z,73.91
2019-03-08T09:13:58.919Z,73.91
2019-03-08T09:15:08.722Z,74.29
2019-03-08T09:16:18.442Z,74.19
2019-03-08T09:17:27.921Z,73.91
2019-03-08T09:18:37.404Z,74.1
2019-03-08T09:19:47.126Z,74.39
2019-03-08T09:20:56.617Z,73.81
2019-03-08T09:22:06.343Z,73.81
2019-03-08T09:23:16.069Z,74.1
2019-03-08T09:24:25.809Z,74.48
2019-03-08T09:25:35.297Z,74.77
2019-03-08T09:26:45.283Z,74.39
2019-03-08T09:27:54.819Z,74.87
2019-03-08T09:29:04.552Z,74.68
2019-03-08T09:30:14.286Z,74.68
2019-03-08T09:31:25.107Z,74.1
2019-03-08T09:32:35.178Z,74.29
2019-03-08T09:33:44.652Z,74.96
2019-03-08T09:34:54.410Z,75.63
2019-03-08T09:36:04.137Z,76.31
2019-03-08T09:37:14.113Z,76.12
2019-03-08T09:38:23.846Z,76.5
2019-03-08T09:39:33.332Z,76.21
2019-03-08T09:40:43.311Z,76.31
2019-03-08T09:41:53.027Z,76.5
2019-03-08T09:43:02.792Z,76.4
2019-03-08T09:44:12.794Z,76.12
2019-03-08T09:45:22.524Z,76.59
2019-03-08T09:46:32.266Z,76.59
2019-03-08T09:47:42.007Z,76.88
2019-03-08T09:48:51.499Z,77.36
2019-03-08T09:50:01.838Z,77.36
2019-03-08T09:51:11.626Z,77.75
2019-03-08T09:52:21.360Z,77.94
2019-03-08T09:53:31.098Z,79.19
2019-03-08T09:54:40.852Z,79.38
2019-03-08T09:55:50.566Z,79.19
2019-03-08T09:57:00.557Z,79.67
2019-03-08T09:58:10.311Z,79.09
2019-03-08T09:59:20.300Z,79.09
2019-03-08T10:00:30.492Z,80.34
2019-03-08T10:01:39.970Z,79.96
2019-03-08T10:02:49.697Z,79.28
2019-03-08T10:03:59.673Z,78.7
2019-03-08T10:05:09.659Z,78.23
2019-03-08T10:06:19.647Z,77.75
2019-03-08T10:07:29.621Z,76.59
2019-03-08T10:08:39.421Z,76.5
2019-03-08T10:09:49.809Z,76.21
2019-03-08T10:11:00.059Z,76.02
2019-03-08T10:12:10.373Z,75.54
2019-03-08T10:13:21.046Z,75.54
2019-03-08T10:14:31.521Z,75.06
2019-03-08T10:15:41.464Z,75.54
2019-03-08T10:16:51.274Z,75.06
2019-03-08T10:18:01.276Z,74.77
2019-03-08T10:19:10.259Z,74.96
2019-03-08T10:20:19.722Z,74.77
2019-03-08T10:21:29.211Z,74.68
2019-03-08T10:22:38.943Z,74.87
2019-03-08T10:23:48.659Z,74.68
2019-03-08T10:24:58.404Z,74.77
2019-03-08T10:26:08.127Z,74.68
2019-03-08T10:27:17.363Z,74.77
2019-03-08T10:28:27.367Z,74.77
2019-03-08T10:29:37.095Z,74.48
2019-03-08T10:30:47.120Z,74.68
2019-03-08T10:31:57.118Z,73.81
2019-03-08T10:33:07.100Z,74.39
2019-03-08T10:34:17.874Z,74.1
2019-03-08T10:35:27.480Z,73.52
2019-03-08T10:36:36.982Z,74.48
2019-03-08T10:37:46.722Z,73.91
2019-03-08T10:38:56.692Z,74.1
2019-03-08T10:40:08.120Z,73.91
2019-03-08T10:41:18.118Z,74.1
2019-03-08T10:42:28.094Z,74.19
2019-03-08T10:43:38.075Z,73.81
2019-03-08T10:44:47.810Z,72.95
2019-03-08T10:45:57.516Z,73.43
2019-03-08T10:47:07.007Z,73.14
2019-03-08T10:48:17.000Z,72.85
2019-03-08T10:49:26.995Z,72.56
2019-03-08T10:50:36.474Z,72.75
2019-03-08T10:51:46.468Z,72.37
2019-03-08T10:52:55.963Z,72.47
2019-03-08T10:54:05.700Z,72.37
2019-03-08T10:55:15.693Z,72.75
2019-03-08T10:56:25.673Z,72.56
2019-03-08T10:57:35.652Z,72.85
2019-03-08T10:58:45.130Z,72.95
2019-03-08T10:59:55.114Z,72.75
2019-03-08T11:01:04.869Z,72.28
2019-03-08T11:02:14.844Z,72.47
2019-03-08T11:03:24.560Z,72.95
2019-03-08T11:04:34.290Z,72.95
2019-03-08T11:05:44.005Z,72.28
2019-03-08T11:06:53.732Z,72.85
2019-03-08T11:08:03.662Z,72.56
2019-03-08T11:09:14.831Z,72.66
2019-03-08T11:10:24.797Z,72.75
2019-03-08T11:11:34.994Z,72.18
2019-03-08T11:12:45.698Z,72.08
2019-03-08T11:13:56.182Z,72.56
2019-03-08T11:15:06.121Z,72.28
2019-03-08T11:16:16.474Z,72.47
2019-03-08T11:17:27.918Z,72.37
2019-03-08T11:18:37.659Z,72.47
2019-03-08T11:19:47.391Z,72.37
2019-03-08T11:20:56.885Z,72.37
2019-03-08T11:22:06.605Z,71.89
2019-03-08T11:23:16.322Z,71.89
2019-03-08T11:24:26.330Z,71.61
2019-03-08T11:25:37.702Z,71.8
2019-03-08T11:26:47.443Z,71.51
2019-03-08T11:27:56.920Z,71.51
2019-03-08T11:29:06.646Z,71.98
2019-03-08T11:30:16.635Z,72.47
2019-03-08T11:31:26.879Z,72.56
2019-03-08T11:32:37.855Z,72.95
2019-03-08T11:33:49.251Z,73.14
2019-03-08T11:34:59.026Z,74.19
2019-03-08T11:36:08.497Z,74.58
2019-03-08T11:37:18.470Z,74.96
2019-03-08T11:38:28.202Z,75.63
2019-03-08T11:39:38.194Z,75.25
2019-03-08T11:40:47.939Z,75.54
2019-03-08T11:41:58.167Z,75.2
2019-03-08T11:43:08.194Z,74.71
2019-03-08T11:44:18.192Z,75.38
2019-03-08T11:45:28.503Z,74.52
2019-03-08T11:46:37.970Z,74.13
2019-03-08T11:47:47.181Z,74.62
2019-03-08T11:48:56.942Z,73.94
2019-03-08T11:50:06.677Z,73.81
2019-03-08T11:51:16.150Z,74.39
2019-03-08T11:52:25.636Z,74.39
2019-03-08T11:53:35.379Z,74.68
2019-03-08T11:54:45.142Z,74.33
2019-03-08T11:55:54.622Z,75
2019-03-08T11:57:04.503Z,74.9
2019-03-08T11:58:14.025Z,74.77
2019-03-08T11:59:23.741Z,74.71
2019-03-08T12:00:33.718Z,74.68
2019-03-08T12:01:43.722Z,75.48
2019-03-08T12:02:55.634Z,75.57
2019-03-08T12:04:06.067Z,75.1
2019-03-08T12:05:16.540Z,75
2019-03-08T12:06:26.523Z,74.23
2019-03-08T12:07:37.955Z,74.23
2019-03-08T12:08:47.724Z,74.9
2019-03-08T12:09:57.234Z,74.9
2019-03-08T12:11:07.214Z,74.33
2019-03-08T12:12:16.429Z,74.62
2019-03-08T12:13:26.416Z,74.13
2019-03-08T12:14:37.360Z,73.75
2019-03-08T12:15:47.111Z,73.46
2019-03-08T12:16:57.095Z,73.85
2019-03-08T12:18:06.597Z,73.75
2019-03-08T12:19:16.086Z,73.88
2019-03-08T12:20:25.818Z,73.41
2019-03-08T12:21:35.787Z,73.98
2019-03-08T12:22:45.519Z,73.46
2019-03-08T12:23:55.001Z,72.92
